createdAt,value
2022-12-14T00:02:08.199Z,1.20
2022-12-14T00:04:56.945Z,0.85
2022-12-14T00:07:45.812Z,0.88
2022-12-14T00:10:39.047Z,1.08
2022-12-14T00:13:27.688Z,1.08
2022-12-14T00:16:19.341Z,0.93
2022-12-14T00:19:08.072Z,0.95
2022-12-14T00:21:56.649Z,0.63
2022-12-14T00:24:45.309Z,0.90
2022-12-14T00:27:34.068Z,1.00
2022-12-14T00:30:22.796Z,0.80
2022-12-14T00:33:12.743Z,0.82
2022-12-14T00:36:01.511Z,1.23
2022-12-14T00:38:50.120Z,0.88
2022-12-14T00:41:38.795Z,0.98
2022-12-14T00:44:27.436Z,1.23
2022-12-14T00:47:16.019Z,0.60
2022-12-14T00:50:06.612Z,0.75
2022-12-14T00:52:55.268Z,0.80
2022-12-14T00:55:49.391Z,1.15
2022-12-14T00:58:38.293Z,0.70
2022-12-14T01:01:26.999Z,0.88
2022-12-14T01:04:19.459Z,0.63
2022-12-14T01:07:09.505Z,1.00
2022-12-14T01:09:58.138Z,0.95
2022-12-14T01:12:46.752Z,0.50
2022-12-14T01:15:37.123Z,0.70
2022-12-14T01:18:25.874Z,0.95
2022-12-14T01:21:16.361Z,0.73
2022-12-14T01:24:07.060Z,0.68
2022-12-14T01:26:55.741Z,0.68
2022-12-14T01:29:44.724Z,0.70
2022-12-14T01:32:33.308Z,0.50
2022-12-14T01:35:21.993Z,0.93
2022-12-14T01:38:10.547Z,0.63
2022-12-14T01:41:00.614Z,0.70
2022-12-14T01:43:51.424Z,0.60
2022-12-14T01:46:43.864Z,0.50
2022-12-14T01:49:36.595Z,0.50
2022-12-14T01:52:28.362Z,0.47
2022-12-14T01:55:19.674Z,0.60
2022-12-14T01:58:13.512Z,0.60
2022-12-14T02:01:03.014Z,0.60
2022-12-14T02:03:53.513Z,0.70
2022-12-14T02:06:44.057Z,0.60
2022-12-14T02:09:35.393Z,0.60
2022-12-14T02:12:29.276Z,0.55
2022-12-14T02:15:19.707Z,0.50
2022-12-14T02:18:12.962Z,0.47
2022-12-14T02:21:17.829Z,0.50
2022-12-14T02:24:29.409Z,0.60
2022-12-14T02:27:29.105Z,0.30
2022-12-14T02:30:20.301Z,0.38
2022-12-14T02:33:29.902Z,0.50
2022-12-14T02:36:22.825Z,0.57
2022-12-14T02:39:17.659Z,0.50
2022-12-14T02:42:10.115Z,0.50
2022-12-14T02:45:04.567Z,0.40
2022-12-14T02:47:57.852Z,0.25
2022-12-14T02:50:53.163Z,0.73
2022-12-14T02:53:45.576Z,0.45
2022-12-14T02:56:38.735Z,0.60
2022-12-14T02:59:27.762Z,0.57
2022-12-14T03:02:16.480Z,0.57
2022-12-14T03:05:07.407Z,0.55
2022-12-14T03:07:57.843Z,0.40
2022-12-14T03:10:50.084Z,0.40
2022-12-14T03:13:40.987Z,0.20
2022-12-14T03:16:33.986Z,0.52
2022-12-14T03:19:25.495Z,0.60
2022-12-14T03:22:20.141Z,0.50
2022-12-14T03:25:12.227Z,0.40
2022-12-14T03:28:04.349Z,0.28
2022-12-14T03:31:00.552Z,0.30
2022-12-14T03:33:50.703Z,0.50
2022-12-14T03:36:43.261Z,0.50
2022-12-14T03:39:35.370Z,0.30
2022-12-14T03:42:26.215Z,0.40
2022-12-14T03:45:20.130Z,0.35
2022-12-14T03:48:15.486Z,0.20
2022-12-14T03:51:10.421Z,0.35
2022-12-14T03:54:05.832Z,0.30
2022-12-14T03:56:57.998Z,0.30
2022-12-14T03:59:51.118Z,0.40
2022-12-14T04:02:43.435Z,0.32
2022-12-14T04:05:36.091Z,0.30
2022-12-14T04:08:29.642Z,0.30
2022-12-14T04:11:36.226Z,0.30
2022-12-14T04:14:48.271Z,0.30
2022-12-14T04:17:56.113Z,0.25
2022-12-14T04:20:47.998Z,0.30
2022-12-14T04:23:58.193Z,0.30
2022-12-14T04:26:52.370Z,0.30
2022-12-14T04:29:58.168Z,0.30
2022-12-14T04:32:49.799Z,0.40
2022-12-14T04:35:40.593Z,0.40
2022-12-14T04:38:36.697Z,0.45
2022-12-14T04:41:27.722Z,0.50
2022-12-14T04:44:19.377Z,0.28
2022-12-14T04:47:11.466Z,0.55
2022-12-14T04:50:03.282Z,0.50
2022-12-14T04:52:54.875Z,0.35
2022-12-14T04:55:47.769Z,0.30
2022-12-14T04:58:38.348Z,0.20
2022-12-14T05:01:37.190Z,0.20
2022-12-14T05:04:36.299Z,0.20
2022-12-14T05:07:38.076Z,0.20
2022-12-14T05:10:32.642Z,0.60
2022-12-14T05:13:24.713Z,0.40
2022-12-14T05:16:13.744Z,0.35
2022-12-14T05:19:02.434Z,0.20
2022-12-14T05:21:52.364Z,0.28
2022-12-14T05:24:41.061Z,5.43
2022-12-14T05:27:29.605Z,7.18
2022-12-14T05:30:18.574Z,5.78
2022-12-14T05:33:07.451Z,5.30
2022-12-14T05:35:56.087Z,5.07
2022-12-14T05:38:46.051Z,4.90
2022-12-14T05:41:34.633Z,4.75
2022-12-14T05:44:23.282Z,4.25
2022-12-14T05:47:11.887Z,3.40
2022-12-14T05:50:00.646Z,3.70
2022-12-14T05:52:49.268Z,4.20
2022-12-14T05:55:39.167Z,3.83
2022-12-14T05:58:27.831Z,3.92
2022-12-14T06:01:19.350Z,3.58
2022-12-14T06:04:08.447Z,3.53
2022-12-14T06:06:57.157Z,3.03
2022-12-14T06:09:45.772Z,2.67
2022-12-14T06:12:35.777Z,2.35
2022-12-14T06:15:27.195Z,2.70
2022-12-14T06:18:18.853Z,2.13
2022-12-14T06:21:07.548Z,2.15
2022-12-14T06:23:56.784Z,2.28
2022-12-14T06:26:45.682Z,2.25
2022-12-14T06:29:35.619Z,2.10
2022-12-14T06:32:24.724Z,2.22
2022-12-14T06:35:13.549Z,1.88
2022-12-14T06:38:02.117Z,1.67
2022-12-14T06:40:50.721Z,1.55
2022-12-14T06:43:39.348Z,2.08
2022-12-14T06:46:29.319Z,1.58
2022-12-14T06:49:17.951Z,1.58
2022-12-14T06:52:06.987Z,1.73
2022-12-14T06:54:55.986Z,1.48
2022-12-14T06:57:44.639Z,1.67
2022-12-14T07:00:33.309Z,1.30
2022-12-14T07:03:23.293Z,1.15
2022-12-14T07:06:12.120Z,1.20
2022-12-14T07:09:04.450Z,1.45
2022-12-14T07:11:53.022Z,1.25
2022-12-14T07:14:41.637Z,1.40
2022-12-14T07:17:30.313Z,1.30
2022-12-14T07:20:20.518Z,1.13
2022-12-14T07:23:09.154Z,1.25
2022-12-14T07:26:03.350Z,1.20
2022-12-14T07:28:52.990Z,1.13
2022-12-14T07:31:41.560Z,1.02
2022-12-14T07:34:30.232Z,1.00
2022-12-14T07:37:20.557Z,1.23
2022-12-14T07:40:10.969Z,1.10
2022-12-14T07:42:59.699Z,0.80
2022-12-14T07:45:48.388Z,0.73
2022-12-14T07:48:37.416Z,1.00
2022-12-14T07:51:27.934Z,0.80
2022-12-14T07:54:18.110Z,0.95
2022-12-14T07:57:06.645Z,1.00
2022-12-14T07:59:57.563Z,1.35
2022-12-14T08:02:46.580Z,0.60
2022-12-14T08:05:35.408Z,0.90
2022-12-14T08:08:24.018Z,1.00
2022-12-14T08:11:15.042Z,0.70
2022-12-14T08:14:05.758Z,0.93
2022-12-14T08:16:54.523Z,0.68
2022-12-14T08:19:43.363Z,0.90
2022-12-14T08:22:32.048Z,0.60
2022-12-14T08:25:21.083Z,0.70
2022-12-14T08:28:11.525Z,0.60
2022-12-14T08:31:05.683Z,0.68
2022-12-14T08:33:54.388Z,0.98
2022-12-14T08:36:43.030Z,1.70
2022-12-14T08:39:31.574Z,1.20
2022-12-14T08:42:20.331Z,0.80
2022-12-14T08:45:11.225Z,0.90
2022-12-14T08:48:00.227Z,1.00
2022-12-14T08:50:49.970Z,1.00
2022-12-14T08:53:39.600Z,1.00
2022-12-14T08:56:29.333Z,0.90
2022-12-14T08:59:43.907Z,0.75
2022-12-14T09:02:28.029Z,0.88
2022-12-14T09:05:17.002Z,1.23
2022-12-14T09:08:06.042Z,1.10
2022-12-14T09:10:54.701Z,1.10
2022-12-14T09:13:43.986Z,0.80
2022-12-14T09:16:32.706Z,1.05
2022-12-14T09:19:22.877Z,1.00
2022-12-14T09:22:13.320Z,1.15
2022-12-14T09:25:01.963Z,0.63
2022-12-14T09:27:50.956Z,0.90
2022-12-14T09:30:39.673Z,0.93
2022-12-14T09:33:29.974Z,0.90
2022-12-14T09:36:22.008Z,0.70
2022-12-14T09:39:14.638Z,0.90
2022-12-14T09:42:11.422Z,0.80
2022-12-14T09:45:04.045Z,1.05
2022-12-14T09:47:58.091Z,1.38
2022-12-14T09:50:48.047Z,0.80
2022-12-14T09:53:41.223Z,1.02
2022-12-14T09:56:29.900Z,0.90
2022-12-14T09:59:20.815Z,0.52
2022-12-14T10:02:41.490Z,0.60
2022-12-14T10:05:43.329Z,0.70
2022-12-14T10:08:36.397Z,0.82
2022-12-14T10:11:33.789Z,0.82
2022-12-14T10:14:25.452Z,0.70
2022-12-14T10:17:23.805Z,0.75
2022-12-14T10:20:18.516Z,0.70
2022-12-14T10:23:09.726Z,0.40
2022-12-14T10:26:03.533Z,0.73
2022-12-14T10:29:01.257Z,0.77
2022-12-14T10:31:59.515Z,0.40
2022-12-14T10:34:48.411Z,0.77
2022-12-14T10:37:40.508Z,0.40
2022-12-14T10:40:34.144Z,0.50
2022-12-14T10:43:34.000Z,0.70
2022-12-14T10:46:31.411Z,0.40
2022-12-14T10:49:26.057Z,0.50
2022-12-14T10:52:18.666Z,0.50
2022-12-14T10:55:14.765Z,0.40
2022-12-14T10:58:03.626Z,0.55
2022-12-14T11:00:55.190Z,0.60
2022-12-14T11:03:48.442Z,0.57
2022-12-14T11:06:37.133Z,0.63
2022-12-14T11:09:26.432Z,0.57
2022-12-14T11:12:23.980Z,0.47
2022-12-14T11:15:24.916Z,0.50
2022-12-14T11:18:25.673Z,0.65
2022-12-14T11:21:17.331Z,0.35
2022-12-14T11:24:06.895Z,0.60
2022-12-14T11:26:57.458Z,0.77
2022-12-14T11:29:47.644Z,0.52
2022-12-14T11:32:36.329Z,0.45
2022-12-14T11:35:25.614Z,0.50
2022-12-14T11:38:16.420Z,0.40
2022-12-14T11:41:11.525Z,0.43
2022-12-14T11:44:08.435Z,0.40
2022-12-14T11:47:04.716Z,0.52
2022-12-14T11:49:55.313Z,0.30
2022-12-14T11:52:44.198Z,0.40
2022-12-14T11:55:35.573Z,0.40
2022-12-14T11:58:25.737Z,0.40
2022-12-14T12:01:16.610Z,0.57
2022-12-14T12:04:07.108Z,0.25
2022-12-14T12:07:00.110Z,0.50
2022-12-14T12:09:51.771Z,0.32
2022-12-14T12:12:54.573Z,0.32
2022-12-14T12:15:49.890Z,0.50
2022-12-14T12:18:46.202Z,0.40
2022-12-14T12:21:37.688Z,0.40
2022-12-14T12:24:32.005Z,0.30
2022-12-14T12:27:23.794Z,0.40
2022-12-14T12:30:22.348Z,0.30
2022-12-14T12:33:23.088Z,0.40
2022-12-14T12:36:11.876Z,0.30
2022-12-14T12:39:05.989Z,0.40
2022-12-14T12:42:05.243Z,0.20
2022-12-14T12:45:00.048Z,0.50
2022-12-14T12:47:51.905Z,0.65
2022-12-14T12:50:44.369Z,0.30
2022-12-14T12:53:41.455Z,0.50
2022-12-14T12:56:36.658Z,0.30
2022-12-14T12:59:37.327Z,0.40
2022-12-14T13:02:32.136Z,0.50
2022-12-14T13:08:37.439Z,0.43
2022-12-14T13:11:30.914Z,0.32
2022-12-14T13:14:23.255Z,0.65
2022-12-14T13:17:25.324Z,0.30
2022-12-14T13:20:22.941Z,0.28
2022-12-14T13:23:43.082Z,0.40
2022-12-14T13:26:56.841Z,0.30
2022-12-14T13:29:50.187Z,0.32
2022-12-14T13:32:48.946Z,0.30
2022-12-14T13:35:49.478Z,0.17
2022-12-14T13:39:08.613Z,0.20
2022-12-14T13:42:02.629Z,0.20
2022-12-14T13:44:57.781Z,0.30
2022-12-14T13:47:51.445Z,0.28
2022-12-14T13:50:52.991Z,0.30
2022-12-14T13:53:54.864Z,0.22
2022-12-14T13:56:43.525Z,0.30
2022-12-14T13:59:34.857Z,0.13
2022-12-14T14:02:41.626Z,0.40
2022-12-14T14:05:46.857Z,0.32
2022-12-14T14:08:41.667Z,0.40
2022-12-14T14:11:47.135Z,0.20
2022-12-14T14:14:45.525Z,0.43
2022-12-14T14:17:39.874Z,0.30
2022-12-14T14:20:40.984Z,0.10
2022-12-14T14:23:33.384Z,0.20
2022-12-14T14:26:30.110Z,0.30
2022-12-14T14:29:27.715Z,0.30
2022-12-14T14:32:46.988Z,0.20
2022-12-14T14:35:37.460Z,0.60
2022-12-14T14:38:29.324Z,1.13
2022-12-14T14:41:26.392Z,2.50
2022-12-14T14:44:23.037Z,2.00
2022-12-14T14:47:17.526Z,2.47
2022-12-14T14:50:09.275Z,3.50
2022-12-14T14:53:17.783Z,3.72
2022-12-14T14:56:44.887Z,3.67
2022-12-14T14:59:50.577Z,6.45
2022-12-14T15:02:42.594Z,6.38
2022-12-14T15:05:43.273Z,5.75
2022-12-14T15:08:35.394Z,4.38
2022-12-14T15:11:25.289Z,4.45
2022-12-14T15:14:27.192Z,5.25
2022-12-14T15:17:22.965Z,5.18
2022-12-14T15:20:22.355Z,5.57
2022-12-14T15:23:16.256Z,4.10
2022-12-14T15:26:09.162Z,4.63
2022-12-14T15:29:04.548Z,4.63
2022-12-14T15:31:59.633Z,3.92
2022-12-14T15:34:54.970Z,4.28
2022-12-14T15:37:46.613Z,6.15
2022-12-14T15:40:35.732Z,4.90
2022-12-14T15:43:25.879Z,6.82
2022-12-14T15:46:18.604Z,6.18
2022-12-14T15:49:09.164Z,4.28
2022-12-14T15:52:00.811Z,4.93
2022-12-14T15:54:49.736Z,3.30
2022-12-14T15:57:40.289Z,4.35
2022-12-14T16:00:29.451Z,3.90
2022-12-14T16:03:24.922Z,3.83
2022-12-14T16:06:14.374Z,3.03
2022-12-14T16:09:07.884Z,3.20
2022-12-14T16:11:57.895Z,3.60
2022-12-14T16:14:48.466Z,3.00
2022-12-14T16:17:38.236Z,2.88
2022-12-14T16:20:29.540Z,2.85
2022-12-14T16:23:29.784Z,2.67
2022-12-14T16:26:25.830Z,2.53
2022-12-14T16:29:22.907Z,3.17
2022-12-14T16:32:17.130Z,4.35
2022-12-14T16:35:06.320Z,10.15
2022-12-14T16:37:56.505Z,6.78
2022-12-14T16:40:54.898Z,4.95
2022-12-14T16:43:57.708Z,4.35
2022-12-14T16:46:57.409Z,4.88
2022-12-14T16:49:56.323Z,5.50
2022-12-14T16:52:45.043Z,63.85
2022-12-14T16:55:33.781Z,171.52
2022-12-14T16:58:22.486Z,258.35
2022-12-14T17:01:12.727Z,359.95
2022-12-14T17:04:04.217Z,436.52
2022-12-14T17:06:57.261Z,570.63
2022-12-14T17:09:45.887Z,654.20
2022-12-14T17:12:34.698Z,631.70
2022-12-14T17:15:24.866Z,640.97
2022-12-14T17:18:14.853Z,649.22
2022-12-14T17:21:03.901Z,635.22
2022-12-14T17:23:52.775Z,630.35
2022-12-14T17:26:41.466Z,612.08
2022-12-14T17:29:33.211Z,601.95
2022-12-14T17:32:21.879Z,595.63
2022-12-14T17:35:17.741Z,584.63
2022-12-14T17:38:10.919Z,574.17
2022-12-14T17:40:59.647Z,557.80
2022-12-14T17:43:52.468Z,570.83
2022-12-14T17:46:45.182Z,580.15
2022-12-14T17:49:37.113Z,568.00
2022-12-14T17:52:32.002Z,548.78
2022-12-14T17:55:22.743Z,522.08
2022-12-14T17:58:11.952Z,451.13
2022-12-14T18:01:04.619Z,366.63
2022-12-14T18:03:53.647Z,343.52
2022-12-14T18:06:42.410Z,337.30
2022-12-14T18:09:35.882Z,355.77
2022-12-14T18:12:25.848Z,352.60
2022-12-14T18:15:18.959Z,343.65
2022-12-14T18:18:07.802Z,340.83
2022-12-14T18:20:58.597Z,331.58
2022-12-14T18:23:49.634Z,330.65
2022-12-14T18:26:40.581Z,325.85
2022-12-14T18:29:29.244Z,316.92
2022-12-14T18:32:17.879Z,304.33
2022-12-14T18:35:07.363Z,295.85
2022-12-14T18:37:56.024Z,285.38
2022-12-14T18:40:49.770Z,280.95
2022-12-14T18:43:43.657Z,278.40
2022-12-14T18:46:32.891Z,272.55
2022-12-14T18:49:21.621Z,264.73
2022-12-14T18:52:11.746Z,266.25
2022-12-14T18:55:00.432Z,256.60
2022-12-14T18:57:51.532Z,250.65
2022-12-14T19:00:41.567Z,248.48
2022-12-14T19:03:34.067Z,243.88
2022-12-14T19:09:34.630Z,242.70
2022-12-14T19:12:23.310Z,230.68
2022-12-14T19:15:15.888Z,225.80
2022-12-14T19:18:05.967Z,224.77
2022-12-14T19:20:54.578Z,212.07
2022-12-14T19:23:43.212Z,207.95
2022-12-14T19:26:32.204Z,201.25
2022-12-14T19:29:21.582Z,196.30
2022-12-14T19:32:11.578Z,191.40
2022-12-14T19:35:01.716Z,188.07
2022-12-14T19:37:50.719Z,187.02
2022-12-14T19:40:39.652Z,181.70
2022-12-14T19:43:28.766Z,175.68
2022-12-14T19:46:18.450Z,173.77
2022-12-14T19:49:09.416Z,171.57
2022-12-14T19:51:59.683Z,161.85
2022-12-14T19:54:48.357Z,160.60
2022-12-14T19:57:37.238Z,155.80
2022-12-14T20:00:25.825Z,154.95
2022-12-14T20:03:14.703Z,152.25
2022-12-14T20:06:05.997Z,147.57
2022-12-14T20:08:59.726Z,144.98
2022-12-14T20:11:48.437Z,142.68
2022-12-14T20:14:39.757Z,136.50
2022-12-14T20:17:28.535Z,133.77
2022-12-14T20:20:17.287Z,136.35
2022-12-14T20:23:06.050Z,131.50
2022-12-14T20:26:01.575Z,128.05
2022-12-14T20:28:50.833Z,125.20
2022-12-14T20:31:39.698Z,120.65
2022-12-14T20:34:29.055Z,119.90
2022-12-14T20:37:20.821Z,116.85
2022-12-14T20:40:11.114Z,111.03
2022-12-14T20:43:01.103Z,105.18
2022-12-14T20:45:49.737Z,104.40
2022-12-14T20:48:38.504Z,100.72
2022-12-14T20:51:27.219Z,98.57
2022-12-14T20:54:18.203Z,94.07
2022-12-14T20:57:06.830Z,91.15
2022-12-14T20:59:59.403Z,92.03
2022-12-14T21:02:48.282Z,87.75
2022-12-14T21:05:41.700Z,89.28
2022-12-14T21:08:31.653Z,82.60
2022-12-14T21:11:37.906Z,83.13
2022-12-14T21:14:27.876Z,77.97
2022-12-14T21:17:17.896Z,74.30
2022-12-14T21:20:07.657Z,76.07
2022-12-14T21:22:56.363Z,75.15
2022-12-14T21:25:45.098Z,72.20
2022-12-14T21:28:34.162Z,68.45
2022-12-14T21:31:23.329Z,66.20
2022-12-14T21:34:15.539Z,63.08
2022-12-14T21:37:04.645Z,62.25
2022-12-14T21:39:54.498Z,59.85
2022-12-14T21:42:42.938Z,57.38
2022-12-14T21:45:31.700Z,57.85
2022-12-14T21:48:20.437Z,56.30
2022-12-14T21:51:11.479Z,55.03
2022-12-14T21:54:00.092Z,50.70
2022-12-14T21:57:06.339Z,51.45
2022-12-14T21:59:55.928Z,50.92
2022-12-14T22:02:44.766Z,48.83
2022-12-14T22:05:33.546Z,48.70
2022-12-14T22:08:23.570Z,47.72
2022-12-14T22:11:12.308Z,46.22
2022-12-14T22:14:02.336Z,46.50
2022-12-14T22:16:51.468Z,43.95
2022-12-14T22:19:40.295Z,42.10
2022-12-14T22:22:28.990Z,41.60
2022-12-14T22:25:19.038Z,38.60
2022-12-14T22:28:07.783Z,37.30
2022-12-14T22:30:56.528Z,37.67
2022-12-14T22:33:45.832Z,34.38
2022-12-14T22:36:38.457Z,34.00
2022-12-14T22:39:27.327Z,32.03
2022-12-14T22:42:17.620Z,35.13
2022-12-14T22:45:07.096Z,32.80
2022-12-14T22:47:55.790Z,30.42
2022-12-14T22:50:44.462Z,30.02
2022-12-14T22:53:33.491Z,30.33
2022-12-14T22:56:24.277Z,28.23
2022-12-14T22:59:16.341Z,28.45
2022-12-14T23:02:05.368Z,27.45
2022-12-14T23:04:54.108Z,26.75
2022-12-14T23:07:43.429Z,26.55
2022-12-14T23:10:50.067Z,27.02
2022-12-14T23:13:56.562Z,23.73
2022-12-14T23:17:03.967Z,22.90
2022-12-14T23:20:10.726Z,23.70
2022-12-14T23:23:16.827Z,22.27
2022-12-14T23:26:23.970Z,21.15
2022-12-14T23:29:30.276Z,19.67
2022-12-14T23:32:37.831Z,19.77
2022-12-14T23:35:43.801Z,20.58
2022-12-14T23:38:50.001Z,19.35
2022-12-14T23:41:56.346Z,17.52
2022-12-14T23:45:02.464Z,17.23
2022-12-14T23:48:10.076Z,17.00
2022-12-14T23:51:16.174Z,17.08
2022-12-14T23:54:22.349Z,17.10
2022-12-14T23:57:28.702Z,14.93
